Arctic - Eastern Arctic: Past 24 Hour Conditions

 

Puvirnituq Airport

06:00 PM EST 15 February 2019
Disclaimer

This table is a summary of hourly weather conditions for the past 24 hours.
Please note that these observations might not always be representative of weather conditions over their associated marine area.

Date / Time
(EST)
Wind(knots) Conditions Visibility(km) Pressure(kPa) Air tempC) Relative humidity(%) Dew pointC) Wind Chill
15 February 2019
18:00 E 23 Clear 16 100.9 -19 79 -22 -33
17:00 E 20 Clear 16 101.0 -19 80 -22 -32
16:00 ESE 17 gust 22 Mainly Sunny 16 101.0 -19 80 -22 -32
15:00 E 18 Mainly Sunny 16 101.0 -19 79 -22 -32
14:00 E 18 Mainly Sunny 11 101.1 -20 79 -22 -33
13:00 E 18 Sunny 16 101.2 -20 80 -22 -33
12:00 E 16 Sunny 16 101.3 -20 81 -23 -33
11:00 E 21 Mainly Sunny 16 101.3 -21 82 -23 -36
10:00 E 17 Mainly Sunny 16 101.4 -22 82 -24 -35
9:00 E 13 gust 18 Mainly Sunny 16 101.5 -22 82 -25 -34
8:00 E 18 Sunny 16 101.5 -22 82 -25 -36
7:00 ENE 12 Mainly Clear 16 101.5 -22 82 -24 -33
6:00 E 15 Clear 16 101.6 -22 82 -24 -34
5:00 ENE 11 Clear 16 101.6 -22 83 -24 -34
4:00 ENE 11 Clear 16 101.6 -23 82 -25 -34
3:00 E 11 Clear 16 101.7 -23 82 -25 -34
2:00 ENE 14 Clear 16 101.7 -23 82 -25 -36
1:00 ENE 11 Clear 16 101.8 -23 81 -26 -35
0:00 E 10 Clear 16 101.8 -23 81 -26 -34
14 February 2019
23:00 E 8 Clear 16 101.8 -24 81 -26 -33
22:00 ENE 7 Clear 16 101.8 -24 80 -27 -34
21:00 ENE 10 Clear 16 101.9 -25 79 -27 -36
20:00 ENE 10 Clear 16 101.9 -25 80 -27 -36
19:00 ENE 11 Clear 16 101.9 -24 80 -27 -36
18:00 ENE 12 Clear 16 101.9 -24 80 -27 -36

Zoom-in to make a selection

Map of Arctic - Eastern Arctic marine weather areas Baker Lake Airport Chesterfield Inlet Airport Coral Harbour Airport Gjoa Haven Airport Kugaaruk Airport Rankin Inlet Airport Shepherd Bay Airport Whale Cove Airport Arctic Bay Brevoort Island Qikiqtarjuaq Airport Cape Dorset Airport Cape Dyer Cape Hooper Cape Liverpool Clyde River Airport Cape Mercy Fort Ross Grise Fiord Airport Hall Beach Airport Igloolik Airport Iqaluit Airport Kimmirut Airport Longstaff Bluff Pangnirtung Airport Pond Inlet Airport Naujaat Resolute Airport Resolution Island Rowley Island Airport Taloyoak Airport Wager Bay Akulivik Airport Ivujivik Airport Puvirnituq Airport Aupaluk Airport Kangiqsujuaq Airport Kangirsuk Airport Kangiqsualujjuaq Airport Quaqtaq Airport Salluit Airport Tasiujaq Airport Cape Kakkiviak Cape Kiglapait Nain Airport Saglek
Legend:
buoy Buoy
land station Land Station

Arctic - Eastern Arctic Area

Another Region

What we are doing

Date modified: